Terminal Aerodrome Forecast
Issued by NWS

Home | Current Version | Previous Version | Text Only | Print | Product List | Glossary On
Versions: 1 2 3 4 5 6 7 8 9 10 11 12 13 14 15 16 17
154
FTUS44 KLIX 312209 AAA
TAFGPT
TAF AMD
KGPT 312209Z 3122/0118 20004KT P6SM FEW250
     FM011500 17008KT P6SM FEW035 SCT250=

USA.gov is the U.S. government's official web portal to all federal, state and local government web resources and services.